Time;durP1;ratioP1;P1;durP2;ratioP2;P2;SDS_P1;SDS_P2;PMS_P1;PMS_P2;Temp;Humidity;BMP_temperature;BMP_pressure;BME280_temperature;BME280_humidity;BME280_pressure;Samples;Min_cycle;Max_cycle;Signal;HPM_P1;HPM_P2
2023/10/07 00:00:26;;;;;;;4.25;3.80;;;;;;;22.94;54.59;95819.81;5011114;28;20211;-68
2023/10/07 00:02:55;;;;;;;4.40;3.58;;;;;;;22.94;54.59;95819.81;5007998;28;20208;-68
2023/10/07 00:05:27;;;;;;;6.65;4.93;;;;;;;22.94;54.59;95819.81;5003067;28;20208;-68
2023/10/07 00:08:00;;;;;;;4.97;4.05;;;;;;;22.94;54.59;95819.81;5004693;28;20288;-67
2023/10/07 00:10:28;;;;;;;4.65;4.05;;;;;;;22.94;54.59;95819.81;5007119;28;20207;-68
2023/10/07 00:12:57;;;;;;;5.00;4.18;;;;;;;22.94;54.59;95819.81;5015093;28;20262;-68
2023/10/07 00:15:28;;;;;;;5.53;4.22;;;;;;;22.94;54.59;95819.81;5014899;28;20215;-68
2023/10/07 00:18:00;;;;;;;4.68;4.22;;;;;;;22.94;54.59;95819.81;5022431;28;20200;-68
2023/10/07 00:20:28;;;;;;;7.20;3.75;;;;;;;22.94;54.59;95819.81;5018146;28;20208;-68
2023/10/07 00:23:00;;;;;;;5.30;4.32;;;;;;;22.94;54.59;95819.81;5006887;28;20288;-68
2023/10/07 00:25:30;;;;;;;5.45;4.10;;;;;;;22.94;54.59;95819.81;5007257;28;20199;-67
2023/10/07 00:27:57;;;;;;;5.07;4.50;;;;;;;22.94;54.59;95819.81;5014682;28;20204;-67
2023/10/07 00:30:27;;;;;;;6.97;4.82;;;;;;;22.94;54.59;95819.81;5014111;28;20605;-69
2023/10/07 00:32:55;;;;;;;9.05;5.90;;;;;;;22.94;54.59;95819.81;5016729;28;20748;-67
2023/10/07 00:35:24;;;;;;;13.38;12.07;;;;;;;22.94;54.59;95819.81;5015386;28;20657;-67
2023/10/07 00:37:52;;;;;;;16.83;11.75;;;;;;;22.94;54.59;95819.81;5008134;28;20208;-68
2023/10/07 00:40:31;;;;;;;13.40;11.07;;;;;;;22.94;54.59;95819.81;5019236;28;20592;-67
2023/10/07 00:42:58;;;;;;;13.38;11.75;;;;;;;22.94;54.59;95819.81;5009827;28;20320;-68
2023/10/07 00:45:26;;;;;;;11.20;10.18;;;;;;;22.94;54.59;95819.81;5013827;28;20202;-68
2023/10/07 00:47:53;;;;;;;17.10;12.57;;;;;;;22.94;54.59;95819.81;5015917;28;20200;-67
2023/10/07 00:50:22;;;;;;;19.83;13.05;;;;;;;22.94;54.59;95819.81;5009344;28;20592;-68
2023/10/07 00:52:57;;;;;;;14.07;11.10;;;;;;;22.94;54.59;95819.81;5014626;28;20299;-67
2023/10/07 00:55:29;;;;;;;15.48;11.57;;;;;;;22.94;54.59;95819.81;5010005;28;20226;-67
2023/10/07 00:58:07;;;;;;;11.43;10.30;;;;;;;22.94;54.59;95819.81;5009513;28;20236;-68
2023/10/07 01:00:43;;;;;;;12.63;11.32;;;;;;;22.94;54.59;95819.81;5022075;28;20195;-67
2023/10/07 01:03:17;;;;;;;13.88;11.95;;;;;;;22.94;54.59;95819.81;5011316;28;20214;-68
2023/10/07 01:05:55;;;;;;;9.63;7.38;;;;;;;22.94;54.59;95819.81;5008517;28;20205;-68
2023/10/07 01:08:29;;;;;;;6.50;6.00;;;;;;;22.94;54.59;95819.81;5013478;28;20200;-67
2023/10/07 01:11:06;;;;;;;12.35;6.80;;;;;;;22.94;54.59;95819.81;5008048;28;20227;-68
2023/10/07 01:13:35;;;;;;;16.20;5.75;;;;;;;22.94;54.59;95819.81;5006940;28;20223;-68
2023/10/07 01:16:06;;;;;;;8.10;4.82;;;;;;;22.94;54.59;95819.81;5008804;28;20286;-68
2023/10/07 01:18:38;;;;;;;7.75;4.82;;;;;;;22.94;54.59;95819.81;5014681;28;20302;-68
2023/10/07 01:21:07;;;;;;;5.85;5.00;;;;;;;22.94;54.59;95819.81;5022448;28;20199;-68
2023/10/07 01:23:36;;;;;;;6.50;5.05;;;;;;;22.94;54.59;95819.81;5013897;28;20202;-68
2023/10/07 01:26:14;;;;;;;10.60;4.32;;;;;;;22.94;54.59;95819.81;5021771;28;20625;-68
2023/10/07 01:28:43;;;;;;;5.97;4.38;;;;;;;22.94;54.59;95819.81;5021973;28;20207;-67
2023/10/07 01:31:12;;;;;;;7.25;3.88;;;;;;;22.94;54.59;95819.81;5016527;28;20586;-68
2023/10/07 01:33:40;;;;;;;5.80;3.95;;;;;;;22.94;54.59;95819.81;5017523;28;20200;-68
2023/10/07 01:36:13;;;;;;;4.45;4.15;;;;;;;22.94;54.59;95819.81;5015333;28;20251;-68
2023/10/07 01:38:44;;;;;;;4.45;4.05;;;;;;;22.94;54.59;95819.81;5005338;28;20292;-67
2023/10/07 01:41:18;;;;;;;5.35;4.32;;;;;;;22.94;54.59;95819.81;5009892;28;20207;-67
2023/10/07 01:43:56;;;;;;;5.43;4.15;;;;;;;22.94;54.59;95819.81;5018328;28;20226;-67
2023/10/07 01:46:27;;;;;;;5.47;4.35;;;;;;;22.94;54.59;95819.81;5016087;28;20223;-68
2023/10/07 01:48:55;;;;;;;5.05;4.65;;;;;;;22.94;54.59;95819.81;5017482;28;20204;-67
2023/10/07 01:51:22;;;;;;;8.77;4.40;;;;;;;22.94;54.59;95819.81;5019096;28;20287;-68
2023/10/07 01:53:55;;;;;;;4.75;4.35;;;;;;;22.94;54.59;95819.81;5017026;28;20322;-68
2023/10/07 01:56:22;;;;;;;6.85;4.68;;;;;;;22.94;54.59;95819.81;5019211;28;20223;-67
2023/10/07 01:58:50;;;;;;;4.35;4.00;;;;;;;22.94;54.59;95819.81;5021281;28;20262;-68
2023/10/07 02:01:19;;;;;;;4.25;3.90;;;;;;;22.94;54.59;95819.81;5020353;28;20326;-68
2023/10/07 02:03:46;;;;;;;5.03;4.63;;;;;;;22.94;54.59;95819.81;5017067;28;20210;-67
2023/10/07 02:06:18;;;;;;;7.15;4.85;;;;;;;22.94;54.59;95819.81;5011206;28;20208;-67
2023/10/07 02:08:44;;;;;;;9.02;4.70;;;;;;;22.94;54.59;95819.81;5017235;28;20205;-67
2023/10/07 02:11:17;;;;;;;7.70;4.55;;;;;;;22.94;54.59;95819.81;5021491;28;20212;-67
2023/10/07 02:13:45;;;;;;;8.45;4.55;;;;;;;22.94;54.59;95819.81;5018615;28;20248;-67
2023/10/07 02:16:13;;;;;;;7.45;5.15;;;;;;;22.94;54.59;95819.81;5011128;28;20224;-66
2023/10/07 02:18:44;;;;;;;7.30;5.45;;;;;;;22.94;54.59;95819.81;5010652;28;20232;-68
2023/10/07 02:21:11;;;;;;;13.38;5.13;;;;;;;22.94;54.59;95819.81;5023084;28;20211;-68
2023/10/07 02:23:40;;;;;;;8.02;5.03;;;;;;;22.94;54.59;95819.81;5009156;28;20738;-67
2023/10/07 02:26:14;;;;;;;12.27;4.88;;;;;;;22.94;54.59;95819.81;5008587;28;20287;-66
2023/10/07 02:28:43;;;;;;;4.95;4.07;;;;;;;22.94;54.59;95819.81;5018602;28;20646;-67
2023/10/07 02:31:15;;;;;;;7.65;4.70;;;;;;;22.94;54.59;95819.81;5020465;28;20247;-66
2023/10/07 02:33:42;;;;;;;5.50;5.05;;;;;;;22.94;54.59;95819.81;5015965;28;20285;-68
2023/10/07 02:36:12;;;;;;;6.32;4.45;;;;;;;22.94;54.59;95819.81;5009144;28;20650;-68
2023/10/07 02:38:42;;;;;;;6.28;4.22;;;;;;;22.94;54.59;95819.81;5014983;28;20211;-67
2023/10/07 02:41:16;;;;;;;5.32;4.47;;;;;;;22.94;54.59;95819.81;5011953;28;20208;-66
2023/10/07 02:43:48;;;;;;;5.13;4.68;;;;;;;22.94;54.59;95819.81;5017638;28;20294;-66
2023/10/07 02:46:31;;;;;;;11.80;4.60;;;;;;;22.94;54.59;95819.81;5015004;28;20232;-67
2023/10/07 02:49:04;;;;;;;5.05;4.05;;;;;;;22.94;54.59;95819.81;5015424;28;20207;-68
2023/10/07 02:51:31;;;;;;;8.07;4.75;;;;;;;22.94;54.59;95819.81;5018638;28;20208;-67
2023/10/07 02:54:15;;;;;;;8.85;5.25;;;;;;;22.94;54.59;95819.81;5012801;28;20232;-66
2023/10/07 02:56:44;;;;;;;6.72;5.38;;;;;;;22.94;54.59;95819.81;5013475;28;20227;-67
2023/10/07 02:59:27;;;;;;;5.28;4.78;;;;;;;22.94;54.59;95819.81;5013895;28;20302;-66
2023/10/07 03:04:38;;;;;;;8.02;4.78;;;;;;;22.94;54.59;95819.81;5004272;28;20196;-66
2023/10/07 03:07:13;;;;;;;6.22;4.30;;;;;;;22.94;54.59;95819.81;5019900;28;20558;-67
2023/10/07 03:09:42;;;;;;;5.53;4.60;;;;;;;22.94;54.59;95819.81;5015727;28;20203;-68
2023/10/07 03:12:12;;;;;;;8.32;4.93;;;;;;;22.94;54.59;95819.81;5012370;28;20208;-66
2023/10/07 03:14:43;;;;;;;9.40;4.88;;;;;;;22.94;54.59;95819.81;5012777;28;20196;-67
2023/10/07 03:17:18;;;;;;;5.43;4.63;;;;;;;22.94;54.59;95819.81;5016587;28;20220;-67
2023/10/07 03:19:52;;;;;;;8.48;5.18;;;;;;;22.94;54.59;95819.81;5015716;28;20290;-66
2023/10/07 03:22:28;;;;;;;7.22;4.85;;;;;;;22.94;54.59;95819.81;5006982;28;20215;-66
2023/10/07 03:25:00;;;;;;;6.60;4.40;;;;;;;22.94;54.59;95819.81;5009681;28;20211;-68
2023/10/07 03:27:27;;;;;;;6.60;4.47;;;;;;;22.94;54.59;95819.81;5014286;28;20204;-67
2023/10/07 03:32:54;;;;;;;5.22;4.72;;;;;;;22.94;54.59;95819.81;5007278;28;20204;-68
2023/10/07 03:35:35;;;;;;;4.03;3.63;;;;;;;22.94;54.59;95819.81;5007511;28;20316;-66
2023/10/07 03:38:08;;;;;;;4.30;3.83;;;;;;;22.94;54.59;95819.81;5005268;28;20293;-67
2023/10/07 03:40:38;;;;;;;4.43;4.05;;;;;;;22.94;54.59;95819.81;5008368;28;20605;-67
2023/10/07 03:43:06;;;;;;;9.75;4.82;;;;;;;22.94;54.59;95819.81;5006838;28;20277;-67
2023/10/07 03:45:36;;;;;;;8.27;4.60;;;;;;;22.94;54.59;95819.81;5014956;28;20653;-66
2023/10/07 03:48:20;;;;;;;6.85;4.38;;;;;;;22.94;54.59;95819.81;5012718;28;20207;-68
2023/10/07 03:50:48;;;;;;;6.50;4.25;;;;;;;22.94;54.59;95819.81;5014470;28;20283;-68
2023/10/07 03:53:16;;;;;;;6.13;4.97;;;;;;;22.94;54.59;95819.81;5012592;28;20200;-67
2023/10/07 03:55:44;;;;;;;4.72;4.22;;;;;;;22.94;54.59;95819.81;5009323;28;20231;-68
2023/10/07 03:58:19;;;;;;;8.48;5.18;;;;;;;22.94;54.59;95819.81;5017711;28;20651;-64
2023/10/07 04:00:47;;;;;;;8.57;5.40;;;;;;;22.94;54.59;95819.81;5015822;28;20295;-63
2023/10/07 04:03:15;;;;;;;12.40;5.13;;;;;;;22.94;54.59;95819.81;5017993;28;20262;-64
2023/10/07 04:05:45;;;;;;;6.85;5.80;;;;;;;22.94;54.59;95819.81;5018271;28;20301;-64
2023/10/07 04:08:13;;;;;;;7.32;4.50;;;;;;;22.94;54.59;95819.81;5020836;28;20232;-64
2023/10/07 04:10:45;;;;;;;8.30;5.38;;;;;;;22.94;54.59;95819.81;5017293;28;20203;-63
2023/10/07 04:13:21;;;;;;;8.00;5.45;;;;;;;22.94;54.59;95819.81;5017929;28;20204;-65
2023/10/07 04:15:53;;;;;;;5.60;4.40;;;;;;;22.94;54.59;95819.81;5019332;28;20230;-64
2023/10/07 04:18:33;;;;;;;5.28;4.72;;;;;;;22.94;54.59;95819.81;5018003;28;20262;-65
2023/10/07 04:21:00;;;;;;;4.97;4.25;;;;;;;22.94;54.59;95819.81;5016754;28;20590;-64
2023/10/07 04:23:27;;;;;;;16.85;5.93;;;;;;;22.94;54.59;95819.81;5020965;28;20698;-64
2023/10/07 04:26:04;;;;;;;15.35;4.82;;;;;;;22.94;54.59;95819.81;5013483;28;20261;-63
2023/10/07 04:28:31;;;;;;;9.95;5.53;;;;;;;22.94;54.59;95819.81;5008622;28;20210;-64
2023/10/07 04:30:59;;;;;;;6.15;5.15;;;;;;;22.94;54.59;95819.81;5006364;28;20228;-64
2023/10/07 04:33:32;;;;;;;9.05;5.78;;;;;;;22.94;54.59;95819.81;5007728;28;20657;-65
2023/10/07 04:36:04;;;;;;;8.23;6.50;;;;;;;22.94;54.59;95819.81;5009877;28;20220;-63
2023/10/07 04:38:52;;;;;;;11.52;5.13;;;;;;;22.94;54.59;95819.81;5007843;28;20604;-64
2023/10/07 04:41:32;;;;;;;11.10;4.95;;;;;;;22.94;54.59;95819.81;5006044;28;20707;-65
2023/10/07 04:44:20;;;;;;;5.80;4.80;;;;;;;22.94;54.59;95819.81;5012340;28;20243;-63
2023/10/07 04:46:56;;;;;;;7.28;4.68;;;;;;;22.94;54.59;95819.81;5007705;28;20192;-63
2023/10/07 04:49:28;;;;;;;6.20;4.88;;;;;;;22.94;54.59;95819.81;5010169;28;20235;-65
2023/10/07 04:51:58;;;;;;;10.20;5.38;;;;;;;22.94;54.59;95819.81;5007885;28;20204;-62
2023/10/07 04:54:25;;;;;;;5.70;5.20;;;;;;;22.94;54.59;95819.81;5013085;28;20205;-63
2023/10/07 04:57:00;;;;;;;11.77;5.88;;;;;;;22.94;54.59;95819.81;5011017;28;20252;-62
2023/10/07 04:59:27;;;;;;;20.27;5.70;;;;;;;22.94;54.59;95819.81;5005532;28;20286;-65
2023/10/07 05:02:01;;;;;;;6.65;5.20;;;;;;;22.94;54.59;95819.81;5010424;28;20231;-64
2023/10/07 05:04:28;;;;;;;7.78;5.60;;;;;;;22.94;54.59;95819.81;5018267;28;20211;-64
2023/10/07 05:06:54;;;;;;;7.90;5.75;;;;;;;22.94;54.59;95819.81;5011906;28;20293;-65
2023/10/07 05:09:23;;;;;;;12.10;4.72;;;;;;;22.94;54.59;95819.81;5003267;28;20197;-63
2023/10/07 05:11:50;;;;;;;8.95;4.85;;;;;;;22.94;54.59;95819.81;5008816;28;20207;-64
2023/10/07 05:14:17;;;;;;;15.48;5.85;;;;;;;22.94;54.59;95819.81;5022791;28;20207;-65
2023/10/07 05:16:47;;;;;;;7.25;5.13;;;;;;;22.94;54.59;95819.81;5019276;28;20319;-64
2023/10/07 05:19:22;;;;;;;11.70;7.68;;;;;;;22.94;54.59;95819.81;5017441;28;20596;-66
2023/10/07 05:21:59;;;;;;;18.42;11.20;;;;;;;22.94;54.59;95819.81;5018457;28;20223;-63
2023/10/07 05:24:29;;;;;;;10.93;6.75;;;;;;;22.94;54.59;95819.81;5016311;28;20554;-65
2023/10/07 05:26:56;;;;;;;17.45;10.98;;;;;;;22.94;54.59;95819.81;5019003;28;20200;-61
2023/10/07 05:29:24;;;;;;;22.35;12.10;;;;;;;22.94;54.59;95819.81;5016545;28;20204;-63
2023/10/07 05:31:51;;;;;;;14.52;7.93;;;;;;;22.94;54.59;95819.81;5018289;28;20646;-66
2023/10/07 05:34:19;;;;;;;10.50;7.90;;;;;;;22.94;54.59;95819.81;5022594;28;20230;-63
2023/10/07 05:36:47;;;;;;;8.68;6.38;;;;;;;22.94;54.59;95819.81;5016624;28;20733;-64
2023/10/07 05:39:15;;;;;;;12.52;6.50;;;;;;;22.94;54.59;95819.81;5021169;28;20291;-65
2023/10/07 05:41:44;;;;;;;9.77;7.03;;;;;;;22.94;54.59;95819.81;5015152;28;20196;-64
2023/10/07 05:44:11;;;;;;;11.10;6.15;;;;;;;22.94;54.59;95819.81;5007216;28;20228;-66
2023/10/07 05:46:38;;;;;;;9.30;6.57;;;;;;;22.94;54.59;95819.81;5007670;28;20622;-64
2023/10/07 05:49:06;;;;;;;9.25;5.40;;;;;;;22.94;54.59;95819.81;5008713;28;20208;-64
2023/10/07 05:51:36;;;;;;;12.73;6.03;;;;;;;22.94;54.59;95819.81;5012897;28;20256;-65
2023/10/07 05:54:03;;;;;;;11.13;6.10;;;;;;;22.94;54.59;95819.81;5015997;28;20200;-65
2023/10/07 05:56:30;;;;;;;10.32;5.72;;;;;;;22.94;54.59;95819.81;5012400;28;20216;-61
2023/10/07 05:58:57;;;;;;;17.00;8.75;;;;;;;22.94;54.59;95819.81;5017866;28;20208;-65
2023/10/07 06:01:25;;;;;;;33.80;17.23;;;;;;;22.94;54.59;95819.81;5011689;28;20283;-62
2023/10/07 06:03:52;;;;;;;21.88;11.32;;;;;;;22.94;54.59;95819.81;5011983;28;20204;-66
2023/10/07 06:06:20;;;;;;;17.65;7.60;;;;;;;22.94;54.59;95819.81;5016756;28;20200;-65
2023/10/07 06:08:48;;;;;;;10.40;6.15;;;;;;;22.94;54.59;95819.81;5009351;28;20259;-65
2023/10/07 06:11:16;;;;;;;13.18;6.03;;;;;;;22.94;54.59;95819.81;5010019;28;20196;-64
2023/10/07 06:13:44;;;;;;;23.30;7.63;;;;;;;22.94;54.59;95819.81;5007661;28;20205;-64
2023/10/07 06:16:13;;;;;;;13.88;6.45;;;;;;;22.94;54.59;95819.81;5017135;28;20315;-65
2023/10/07 06:18:40;;;;;;;12.18;6.60;;;;;;;22.94;54.59;95819.81;5008930;28;20698;-65
2023/10/07 06:21:19;;;;;;;8.20;6.43;;;;;;;22.94;54.59;95819.81;5006921;28;20233;-66
2023/10/07 06:23:48;;;;;;;8.07;6.10;;;;;;;22.94;54.59;95819.81;5011772;28;20338;-65
2023/10/07 06:26:15;;;;;;;14.20;6.43;;;;;;;22.94;54.59;95819.81;5009288;28;20209;-65
2023/10/07 06:28:44;;;;;;;18.77;11.27;;;;;;;22.94;54.59;95819.81;5018799;28;20291;-63
2023/10/07 06:31:12;;;;;;;20.65;12.52;;;;;;;22.94;54.59;95819.81;5015736;28;20224;-64
2023/10/07 06:33:40;;;;;;;13.32;9.05;;;;;;;22.94;54.59;95819.81;5016153;28;20210;-63
2023/10/07 06:36:10;;;;;;;8.65;6.95;;;;;;;22.94;54.59;95819.81;5015505;28;20214;-64
2023/10/07 06:38:38;;;;;;;14.43;7.25;;;;;;;22.94;54.59;95819.81;5010991;28;20196;-67
2023/10/07 06:41:10;;;;;;;13.43;7.85;;;;;;;22.94;54.59;95819.81;5016193;28;20257;-64
2023/10/07 06:43:38;;;;;;;10.05;7.15;;;;;;;22.94;54.59;95819.81;5013764;28;20311;-65
2023/10/07 06:46:10;;;;;;;19.83;12.80;;;;;;;22.94;54.59;95819.81;5004349;28;20228;-65
2023/10/07 06:48:38;;;;;;;12.55;8.48;;;;;;;22.94;54.59;95819.81;5014772;28;20701;-65
2023/10/07 06:51:06;;;;;;;11.95;7.90;;;;;;;22.94;54.59;95819.81;5018080;28;20298;-66
2023/10/07 06:53:36;;;;;;;13.60;7.22;;;;;;;22.94;54.59;95819.81;5019557;28;20621;-67
2023/10/07 06:56:02;;;;;;;19.05;7.38;;;;;;;22.94;54.59;95819.81;5008506;28;20679;-65
2023/10/07 06:58:30;;;;;;;14.90;7.75;;;;;;;22.94;54.59;95819.81;5015768;28;20236;-67
2023/10/07 07:01:09;;;;;;;10.07;8.18;;;;;;;22.94;54.59;95819.81;5017731;28;20200;-65
2023/10/07 07:03:36;;;;;;;15.75;8.93;;;;;;;22.94;54.59;95819.81;5015748;28;20223;-67
2023/10/07 07:06:04;;;;;;;32.35;20.33;;;;;;;22.94;54.59;95819.81;5006451;28;20263;-67
2023/10/07 07:08:34;;;;;;;20.25;13.65;;;;;;;22.94;54.59;95819.81;5014774;28;20264;-65
2023/10/07 07:11:10;;;;;;;12.88;8.40;;;;;;;22.94;54.59;95819.81;5020985;28;20603;-65
2023/10/07 07:13:43;;;;;;;10.15;8.98;;;;;;;22.94;54.59;95819.81;5018684;28;20290;-65
2023/10/07 07:16:13;;;;;;;14.38;8.23;;;;;;;22.94;54.59;95819.81;5009730;28;20203;-62
2023/10/07 07:18:40;;;;;;;12.13;7.90;;;;;;;22.94;54.59;95819.81;5010023;28;20200;-65
2023/10/07 07:21:26;;;;;;;12.70;10.02;;;;;;;22.94;54.59;95819.81;5004779;28;20211;-66
2023/10/07 07:23:52;;;;;;;15.85;11.10;;;;;;;22.94;54.59;95819.81;5016284;28;20200;-67
2023/10/07 07:26:21;;;;;;;11.80;10.20;;;;;;;22.94;54.59;95819.81;5019339;28;20226;-66
2023/10/07 07:28:48;;;;;;;15.25;9.75;;;;;;;22.94;54.59;95819.81;5005192;28;20782;-65
2023/10/07 07:31:26;;;;;;;19.52;9.43;;;;;;;22.94;54.59;95819.81;5018819;28;20227;-66
2023/10/07 07:33:52;;;;;;;19.27;11.00;;;;;;;22.94;54.59;95819.81;5020673;28;20208;-67
2023/10/07 07:36:37;;;;;;;23.58;9.85;;;;;;;22.94;54.59;95819.81;5019936;28;20227;-65
2023/10/07 07:39:06;;;;;;;18.20;8.43;;;;;;;22.94;54.59;95819.81;5021259;28;20215;-65
2023/10/07 07:41:37;;;;;;;11.00;8.55;;;;;;;22.94;54.59;95819.81;5016912;28;20212;-65
2023/10/07 07:44:11;;;;;;;52.42;26.95;;;;;;;22.94;54.59;95819.81;5018143;28;20616;-64
2023/10/07 07:46:51;;;;;;;19.52;13.82;;;;;;;22.94;54.59;95819.81;5010379;28;20210;-66
2023/10/07 07:49:19;;;;;;;10.38;9.13;;;;;;;22.94;54.59;95819.81;5011499;28;20212;-65
2023/10/07 07:51:47;;;;;;;16.48;7.97;;;;;;;22.94;54.59;95819.81;5017194;28;20200;-63
2023/10/07 07:54:15;;;;;;;12.20;7.75;;;;;;;22.94;54.59;95819.81;5017071;28;20204;-67
2023/10/07 07:56:42;;;;;;;12.18;8.15;;;;;;;22.94;54.59;95819.81;5014737;28;20314;-65
2023/10/07 07:59:14;;;;;;;10.93;7.28;;;;;;;32.33;26.53;95905.22;5021160;28;20601;-65
2023/10/07 08:01:44;;;;;;;8.48;7.50;;;;;;;33.33;25.00;95903.91;5013664;28;20206;-64
2023/10/07 08:04:17;;;;;;;8.98;7.70;;;;;;;34.55;24.14;95903.97;5006011;28;20199;-64
2023/10/07 08:06:45;;;;;;;16.50;8.32;;;;;;;34.80;23.01;95907.25;5010578;28;20208;-64
2023/10/07 08:09:12;;;;;;;11.75;9.75;;;;;;;34.54;23.06;95909.44;5006928;28;20207;-67
2023/10/07 08:11:40;;;;;;;25.65;19.13;;;;;;;34.90;23.26;95906.94;5006234;28;20204;-65
2023/10/07 08:14:10;;;;;;;11.93;9.52;;;;;;;34.76;22.51;95909.38;5007499;28;20595;-67
2023/10/07 08:16:50;;;;;;;11.52;8.88;;;;;;;35.32;22.86;95916.94;5010858;28;20212;-65
2023/10/07 08:19:20;;;;;;;10.05;7.35;;;;;;;35.04;22.00;95909.63;5003439;28;20251;-64
2023/10/07 08:21:51;;;;;;;10.85;7.93;;;;;;;33.62;23.38;95901.47;5014026;28;20203;-63
2023/10/07 08:24:19;;;;;;;15.45;7.18;;;;;;;31.64;25.77;95895.91;5016756;28;20737;-65
2023/10/07 08:26:48;;;;;;;13.90;7.68;;;;;;;31.71;26.11;95897.72;5017610;28;20220;-66
2023/10/07 08:29:31;;;;;;;9.80;7.43;;;;;;;31.95;26.09;95896.13;5020174;28;20227;-65
2023/10/07 08:32:09;;;;;;;8.07;6.53;;;;;;;32.22;25.83;95885.31;5016568;28;20254;-65
2023/10/07 08:34:37;;;;;;;8.23;7.05;;;;;;;32.01;26.14;95882.34;5013259;28;20208;-66
2023/10/07 08:37:08;;;;;;;15.32;7.38;;;;;;;31.79;26.63;95889.88;5007284;28;20721;-66
2023/10/07 08:39:44;;;;;;;15.15;6.88;;;;;;;31.79;26.55;95884.63;5013329;28;20212;-66
2023/10/07 08:42:17;;;;;;;10.52;6.45;;;;;;;31.49;26.79;95879.91;5015195;28;20282;-65
2023/10/07 08:44:51;;;;;;;15.10;7.30;;;;;;;30.95;27.39;95879.34;5016751;28;20208;-64
2023/10/07 08:47:21;;;;;;;10.35;7.35;;;;;;;30.18;28.83;95880.16;5009841;28;20210;-65
2023/10/07 08:49:48;;;;;;;10.88;6.45;;;;;;;29.89;29.33;95875.13;5016095;28;20803;-65
2023/10/07 08:52:18;;;;;;;10.55;7.40;;;;;;;29.48;30.07;95860.78;5011094;28;20278;-67
2023/10/07 08:54:46;;;;;;;11.98;6.45;;;;;;;29.17;30.45;95872.53;5010363;28;20214;-64
2023/10/07 08:57:16;;;;;;;8.45;6.80;;;;;;;28.62;30.42;95846.28;5011234;28;20632;-65
2023/10/07 08:59:49;;;;;;;11.07;7.93;;;;;;;28.62;30.42;95846.28;5018900;28;20238;-64
2023/10/07 09:02:26;;;;;;;11.00;7.47;;;;;;;26.90;33.86;95859.91;5009606;28;20213;-64
2023/10/07 09:04:53;;;;;;;13.70;8.65;;;;;;;26.27;35.16;95864.34;5019304;28;20203;-67
2023/10/07 09:07:20;;;;;;;11.82;6.80;;;;;;;25.92;36.09;95866.44;5017393;28;20247;-67
2023/10/07 09:09:48;;;;;;;8.02;6.85;;;;;;;25.52;36.41;95851.38;5022224;28;20732;-66
2023/10/07 09:12:15;;;;;;;13.90;7.20;;;;;;;25.23;37.38;95847.72;5020314;28;20211;-66
2023/10/07 09:14:51;;;;;;;8.52;6.32;;;;;;;24.98;38.19;95859.22;5011243;28;20224;-66
2023/10/07 09:17:21;;;;;;;11.02;6.32;;;;;;;24.99;37.64;95853.84;5017136;28;20335;-65
2023/10/07 09:19:48;;;;;;;11.10;6.65;;;;;;;24.79;37.35;95854.56;5019729;28;20223;-65
2023/10/07 09:22:17;;;;;;;9.75;5.93;;;;;;;24.55;37.96;95856.44;5019753;28;20208;-67
2023/10/07 09:24:44;;;;;;;6.10;5.20;;;;;;;24.26;37.86;95864.66;5019329;28;20196;-65
2023/10/07 09:27:14;;;;;;;7.53;5.40;;;;;;;24.05;38.02;95855.84;5015158;28;20200;-65
2023/10/07 09:29:46;;;;;;;7.10;6.35;;;;;;;24.05;38.02;95855.84;5020717;28;20238;-64
2023/10/07 09:32:21;;;;;;;9.38;6.88;;;;;;;24.05;38.02;95855.84;5007273;28;20237;-67
2023/10/07 09:34:50;;;;;;;9.35;5.40;;;;;;;24.05;38.02;95855.84;5005392;28;20691;-66
2023/10/07 09:37:21;;;;;;;10.93;5.50;;;;;;;24.05;38.02;95855.84;5016363;28;20228;-63
2023/10/07 09:39:54;;;;;;;13.45;6.13;;;;;;;24.05;38.02;95855.84;5011260;28;20207;-65
2023/10/07 09:42:26;;;;;;;7.10;4.97;;;;;;;24.05;38.02;95855.84;5014871;28;20234;-67
2023/10/07 09:45:00;;;;;;;11.15;4.90;;;;;;;24.05;38.02;95855.84;5006536;28;20212;-66
2023/10/07 09:47:28;;;;;;;7.90;4.65;;;;;;;24.05;38.02;95855.84;5017046;28;20627;-64
2023/10/07 09:49:58;;;;;;;8.23;4.43;;;;;;;24.05;38.02;95855.84;5019742;28;20253;-67
2023/10/07 09:52:32;;;;;;;4.90;4.50;;;;;;;24.05;38.02;95855.84;5009586;28;20212;-65
2023/10/07 09:55:23;;;;;;;9.55;5.18;;;;;;;24.05;38.02;95855.84;5007579;28;20367;-65
2023/10/07 09:58:01;;;;;;;8.45;5.30;;;;;;;24.05;38.02;95855.84;5013173;28;20284;-66
2023/10/07 10:00:40;;;;;;;9.40;4.88;;;;;;;24.05;38.02;95855.84;5020155;28;20395;-66
2023/10/07 10:03:34;;;;;;;9.75;4.97;;;;;;;24.05;38.02;95855.84;5019194;28;20669;-67
2023/10/07 10:06:33;;;;;;;6.55;5.78;;;;;;;24.05;38.02;95855.84;5017892;28;20207;-68
2023/10/07 10:09:09;;;;;;;4.90;4.50;;;;;;;24.05;38.02;95855.84;5015261;28;20204;-66
2023/10/07 10:11:46;;;;;;;10.82;6.60;;;;;;;24.05;38.02;95855.84;5023198;28;20298;-68
2023/10/07 10:14:26;;;;;;;5.47;4.85;;;;;;;24.05;38.02;95855.84;5021910;28;20223;-66
2023/10/07 10:16:54;;;;;;;13.35;5.82;;;;;;;24.05;38.02;95855.84;5022087;28;20196;-67
2023/10/07 10:19:28;;;;;;;5.95;4.20;;;;;;;24.05;38.02;95855.84;5019305;28;20651;-68
2023/10/07 10:22:07;;;;;;;5.85;4.20;;;;;;;24.05;38.02;95855.84;5015975;28;20211;-62
2023/10/07 10:24:41;;;;;;;6.28;5.00;;;;;;;24.05;38.02;95855.84;5019396;28;20200;-64
2023/10/07 10:27:10;;;;;;;13.30;5.72;;;;;;;24.05;38.02;95855.84;5016145;28;20204;-65
2023/10/07 10:29:52;;;;;;;10.32;4.70;;;;;;;24.05;38.02;95855.84;5005612;28;20254;-65
2023/10/07 10:32:28;;;;;;;7.32;6.63;;;;;;;24.05;38.02;95855.84;5005467;28;20224;-65
2023/10/07 10:34:55;;;;;;;7.43;5.00;;;;;;;24.05;38.02;95855.84;5006924;28;20295;-62
2023/10/07 10:37:26;;;;;;;10.18;4.97;;;;;;;24.05;38.02;95855.84;5009934;28;20297;-63
2023/10/07 10:39:53;;;;;;;7.43;4.60;;;;;;;24.05;38.02;95855.84;5003716;28;20212;-65
2023/10/07 10:42:21;;;;;;;5.32;4.88;;;;;;;24.05;38.02;95855.84;5003739;28;20266;-66
2023/10/07 10:44:48;;;;;;;7.47;5.60;;;;;;;24.05;38.02;95855.84;5003593;28;20223;-65
2023/10/07 10:47:16;;;;;;;6.65;4.70;;;;;;;24.05;38.02;95855.84;5005512;28;20205;-66
2023/10/07 10:49:44;;;;;;;7.63;5.13;;;;;;;24.05;38.02;95855.84;5006826;28;20295;-66
2023/10/07 10:52:12;;;;;;;13.70;9.63;;;;;;;24.05;38.02;95855.84;5007353;28;20204;-63
2023/10/07 10:54:40;;;;;;;11.10;9.07;;;;;;;24.05;38.02;95855.84;5011999;28;20231;-67
2023/10/07 10:57:07;;;;;;;11.38;5.28;;;;;;;24.05;38.02;95855.84;5013180;28;20744;-66
2023/10/07 10:59:42;;;;;;;12.60;4.72;;;;;;;24.05;38.02;95855.84;5019545;28;20680;-66
2023/10/07 11:02:10;;;;;;;6.65;4.38;;;;;;;24.05;38.02;95855.84;5012733;28;20668;-67
2023/10/07 11:04:37;;;;;;;8.40;4.07;;;;;;;24.05;38.02;95855.84;5011725;28;20211;-66
2023/10/07 11:07:07;;;;;;;6.47;4.85;;;;;;;24.05;38.02;95855.84;5002105;28;20285;-67
2023/10/07 11:09:38;;;;;;;9.85;4.93;;;;;;;24.05;38.02;95855.84;5016940;28;21192;-65
2023/10/07 11:12:12;;;;;;;7.05;4.72;;;;;;;24.05;38.02;95855.84;5012594;28;20209;-66
2023/10/07 11:14:40;;;;;;;8.55;4.15;;;;;;;24.05;38.02;95855.84;5004736;28;20215;-68
2023/10/07 11:17:09;;;;;;;7.00;4.45;;;;;;;24.05;38.02;95855.84;5009336;28;20754;-69
2023/10/07 11:19:41;;;;;;;4.97;4.55;;;;;;;24.05;38.02;95855.84;5006963;28;20232;-67
2023/10/07 11:22:08;;;;;;;4.80;4.40;;;;;;;24.05;38.02;95855.84;5007142;28;20258;-67
2023/10/07 11:24:37;;;;;;;13.38;5.30;;;;;;;24.05;38.02;95855.84;5014841;28;20204;-68
2023/10/07 11:27:04;;;;;;;9.30;5.30;;;;;;;24.05;38.02;95855.84;5019711;28;20265;-69
2023/10/07 11:29:32;;;;;;;6.32;5.53;;;;;;;24.05;38.02;95855.84;5015358;28;20209;-67
2023/10/07 11:32:00;;;;;;;8.10;5.78;;;;;;;24.05;38.02;95855.84;5004407;28;20756;-68
2023/10/07 11:34:37;;;;;;;7.43;5.35;;;;;;;24.05;38.02;95855.84;5005208;28;20205;-68
2023/10/07 11:37:09;;;;;;;9.75;7.97;;;;;;;24.05;38.02;95855.84;5009358;28;20204;-68
2023/10/07 11:39:42;;;;;;;10.13;5.68;;;;;;;24.05;38.02;95855.84;5011379;28;20220;-68
2023/10/07 11:42:14;;;;;;;20.02;8.60;;;;;;;24.05;38.02;95855.84;5011115;28;20684;-69
2023/10/07 11:44:46;;;;;;;10.82;7.78;;;;;;;24.05;38.02;95855.84;5006446;28;20200;-68
2023/10/07 11:47:15;;;;;;;9.40;6.43;;;;;;;24.05;38.02;95855.84;5004446;28;20729;-68
2023/10/07 11:49:42;;;;;;;5.30;4.43;;;;;;;24.05;38.02;95855.84;5003788;28;20201;-68
2023/10/07 11:52:08;;;;;;;11.10;5.57;;;;;;;24.05;38.02;95855.84;5003894;28;20317;-68